sensor_id;sensor_type;location;lat;lon;timestamp;temperature;humidity
42333;DHT22;27984;51.476;5.702;2022-11-20T00:01:17;0.30;99.90
42333;DHT22;27984;51.476;5.702;2022-11-20T00:03:46;0.20;99.90
42333;DHT22;27984;51.476;5.702;2022-11-20T00:06:17;0.00;99.90
42333;DHT22;27984;51.476;5.702;2022-11-20T00:08:44;0.00;99.90
42333;DHT22;27984;51.476;5.702;2022-11-20T00:11:16;0.00;99.90
42333;DHT22;27984;51.476;5.702;2022-11-20T00:13:43;0.00;99.90
42333;DHT22;27984;51.476;5.702;2022-11-20T00:16:11;-0.20;99.90
42333;DHT22;27984;51.476;5.702;2022-11-20T00:18:37;-0.20;99.90
42333;DHT22;27984;51.476;5.702;2022-11-20T00:21:05;-0.10;99.90
42333;DHT22;27984;51.476;5.702;2022-11-20T00:23:30;-0.20;99.90
42333;DHT22;27984;51.476;5.702;2022-11-20T00:25:56;-0.20;99.90
42333;DHT22;27984;51.476;5.702;2022-11-20T00:28:26;-0.20;99.90
42333;DHT22;27984;51.476;5.702;2022-11-20T00:30:51;-0.20;99.90
42333;DHT22;27984;51.476;5.702;2022-11-20T00:33:17;-0.30;99.90
42333;DHT22;27984;51.476;5.702;2022-11-20T00:35:42;-0.30;99.90
42333;DHT22;27984;51.476;5.702;2022-11-20T00:38:08;-0.20;99.90
42333;DHT22;27984;51.476;5.702;2022-11-20T00:40:33;-0.30;99.90
42333;DHT22;27984;51.476;5.702;2022-11-20T00:42:59;-0.40;99.90
42333;DHT22;27984;51.476;5.702;2022-11-20T00:45:27;-0.40;99.90
42333;DHT22;27984;51.476;5.702;2022-11-20T00:47:53;-0.40;99.90
42333;DHT22;27984;51.476;5.702;2022-11-20T00:50:18;-0.40;99.90
42333;DHT22;27984;51.476;5.702;2022-11-20T00:52:44;-0.40;99.90
42333;DHT22;27984;51.476;5.702;2022-11-20T00:55:10;-0.40;99.90
42333;DHT22;27984;51.476;5.702;2022-11-20T00:57:35;-0.40;99.90
42333;DHT22;27984;51.476;5.702;2022-11-20T01:00:06;-0.40;99.90
42333;DHT22;27984;51.476;5.702;2022-11-20T01:02:32;-0.40;99.90
42333;DHT22;27984;51.476;5.702;2022-11-20T01:04:57;-0.50;99.90
42333;DHT22;27984;51.476;5.702;2022-11-20T01:07:26;-0.50;99.90
42333;DHT22;27984;51.476;5.702;2022-11-20T01:09:51;-0.50;99.90
42333;DHT22;27984;51.476;5.702;2022-11-20T01:12:19;-0.50;99.90
42333;DHT22;27984;51.476;5.702;2022-11-20T01:14:45;-0.60;99.90
42333;DHT22;27984;51.476;5.702;2022-11-20T01:17:12;-0.60;99.90
42333;DHT22;27984;51.476;5.702;2022-11-20T01:19:37;-0.60;99.90
42333;DHT22;27984;51.476;5.702;2022-11-20T01:22:03;-0.60;99.90
42333;DHT22;27984;51.476;5.702;2022-11-20T01:24:29;-0.60;99.90
42333;DHT22;27984;51.476;5.702;2022-11-20T01:26:57;-0.60;99.90
42333;DHT22;27984;51.476;5.702;2022-11-20T01:29:24;-0.60;99.90
42333;DHT22;27984;51.476;5.702;2022-11-20T01:31:49;-0.70;99.90
42333;DHT22;27984;51.476;5.702;2022-11-20T01:34:17;-0.70;99.90
42333;DHT22;27984;51.476;5.702;2022-11-20T01:36:44;-0.70;99.90
42333;DHT22;27984;51.476;5.702;2022-11-20T01:39:17;-0.70;99.90
42333;DHT22;27984;51.476;5.702;2022-11-20T01:41:44;-0.70;99.90
42333;DHT22;27984;51.476;5.702;2022-11-20T01:44:57;-0.70;99.90
42333;DHT22;27984;51.476;5.702;2022-11-20T01:47:39;-0.80;99.90
42333;DHT22;27984;51.476;5.702;2022-11-20T01:50:10;-0.70;99.90
42333;DHT22;27984;51.476;5.702;2022-11-20T01:52:44;-0.80;99.90
42333;DHT22;27984;51.476;5.702;2022-11-20T01:55:31;-0.80;99.90
42333;DHT22;27984;51.476;5.702;2022-11-20T01:57:57;-0.80;99.90
42333;DHT22;27984;51.476;5.702;2022-11-20T02:00:25;-0.90;99.90
42333;DHT22;27984;51.476;5.702;2022-11-20T02:02:58;-0.80;99.90
42333;DHT22;27984;51.476;5.702;2022-11-20T02:05:28;-0.80;99.90
42333;DHT22;27984;51.476;5.702;2022-11-20T02:07:57;-0.80;99.90
42333;DHT22;27984;51.476;5.702;2022-11-20T02:10:23;-0.80;99.90
42333;DHT22;27984;51.476;5.702;2022-11-20T02:12:49;-0.90;99.90
42333;DHT22;27984;51.476;5.702;2022-11-20T02:15:33;-0.80;99.90
42333;DHT22;27984;51.476;5.702;2022-11-20T02:17:59;-0.90;99.90
42333;DHT22;27984;51.476;5.702;2022-11-20T02:20:28;-1.00;99.90
42333;DHT22;27984;51.476;5.702;2022-11-20T02:23:10;-1.00;99.90
42333;DHT22;27984;51.476;5.702;2022-11-20T02:25:37;-1.00;99.90
42333;DHT22;27984;51.476;5.702;2022-11-20T02:28:05;-1.00;99.90
42333;DHT22;27984;51.476;5.702;2022-11-20T02:30:31;-0.90;99.90
42333;DHT22;27984;51.476;5.702;2022-11-20T02:32:57;-0.90;99.90
42333;DHT22;27984;51.476;5.702;2022-11-20T02:37:55;-0.90;99.90
42333;DHT22;27984;51.476;5.702;2022-11-20T02:40:22;-0.80;99.90
42333;DHT22;27984;51.476;5.702;2022-11-20T02:42:52;-0.70;99.90
42333;DHT22;27984;51.476;5.702;2022-11-20T02:45:17;-0.60;99.90
42333;DHT22;27984;51.476;5.702;2022-11-20T02:47:43;-0.60;99.90
42333;DHT22;27984;51.476;5.702;2022-11-20T02:50:09;-0.50;99.90
42333;DHT22;27984;51.476;5.702;2022-11-20T02:52:34;-0.40;99.90
42333;DHT22;27984;51.476;5.702;2022-11-20T02:55:02;-0.40;99.90
42333;DHT22;27984;51.476;5.702;2022-11-20T02:57:30;-0.30;99.90
42333;DHT22;27984;51.476;5.702;2022-11-20T02:59:56;-0.30;99.90
42333;DHT22;27984;51.476;5.702;2022-11-20T03:02:24;-0.30;99.90
42333;DHT22;27984;51.476;5.702;2022-11-20T03:04:50;-0.20;99.90
42333;DHT22;27984;51.476;5.702;2022-11-20T03:07:16;-0.20;99.90
42333;DHT22;27984;51.476;5.702;2022-11-20T03:09:43;-0.20;99.90
42333;DHT22;27984;51.476;5.702;2022-11-20T03:12:09;-0.30;99.90
42333;DHT22;27984;51.476;5.702;2022-11-20T03:14:34;-0.30;99.90
42333;DHT22;27984;51.476;5.702;2022-11-20T03:17:00;-0.20;99.90
42333;DHT22;27984;51.476;5.702;2022-11-20T03:19:26;-0.30;99.90
42333;DHT22;27984;51.476;5.702;2022-11-20T03:21:51;-0.30;99.90
42333;DHT22;27984;51.476;5.702;2022-11-20T03:24:17;-0.30;99.90
42333;DHT22;27984;51.476;5.702;2022-11-20T03:26:42;-0.20;99.90
42333;DHT22;27984;51.476;5.702;2022-11-20T03:29:08;-0.20;99.90
42333;DHT22;27984;51.476;5.702;2022-11-20T03:31:39;-0.30;99.90
42333;DHT22;27984;51.476;5.702;2022-11-20T03:34:09;-0.40;99.90
42333;DHT22;27984;51.476;5.702;2022-11-20T03:36:38;-0.50;99.90
42333;DHT22;27984;51.476;5.702;2022-11-20T03:39:04;-0.50;99.90
42333;DHT22;27984;51.476;5.702;2022-11-20T03:41:31;-0.40;99.90
42333;DHT22;27984;51.476;5.702;2022-11-20T03:43:58;-0.40;99.90
42333;DHT22;27984;51.476;5.702;2022-11-20T03:46:25;-0.40;99.90
42333;DHT22;27984;51.476;5.702;2022-11-20T03:48:52;-0.40;99.90
42333;DHT22;27984;51.476;5.702;2022-11-20T03:51:23;-0.40;99.90
42333;DHT22;27984;51.476;5.702;2022-11-20T03:53:50;-0.40;99.90
42333;DHT22;27984;51.476;5.702;2022-11-20T03:56:18;-0.40;99.90
42333;DHT22;27984;51.476;5.702;2022-11-20T03:58:44;-0.40;99.90
42333;DHT22;27984;51.476;5.702;2022-11-20T04:01:15;-0.40;99.90
42333;DHT22;27984;51.476;5.702;2022-11-20T04:03:42;-0.40;99.90
42333;DHT22;27984;51.476;5.702;2022-11-20T04:06:20;-0.40;99.90
42333;DHT22;27984;51.476;5.702;2022-11-20T04:08:46;-0.40;99.90
42333;DHT22;27984;51.476;5.702;2022-11-20T04:11:19;-0.40;99.90
42333;DHT22;27984;51.476;5.702;2022-11-20T04:13:50;-0.50;99.90
42333;DHT22;27984;51.476;5.702;2022-11-20T04:16:17;-0.60;99.90
42333;DHT22;27984;51.476;5.702;2022-11-20T04:18:43;-0.60;99.90
42333;DHT22;27984;51.476;5.702;2022-11-20T04:21:09;-0.70;99.90
42333;DHT22;27984;51.476;5.702;2022-11-20T04:23:35;-0.80;99.90
42333;DHT22;27984;51.476;5.702;2022-11-20T04:26:02;-0.80;99.90
42333;DHT22;27984;51.476;5.702;2022-11-20T04:28:28;-0.80;99.90
42333;DHT22;27984;51.476;5.702;2022-11-20T04:30:54;-0.90;99.90
42333;DHT22;27984;51.476;5.702;2022-11-20T04:33:19;-0.90;99.90
42333;DHT22;27984;51.476;5.702;2022-11-20T04:35:47;-0.90;99.90
42333;DHT22;27984;51.476;5.702;2022-11-20T04:38:13;-0.80;99.90
42333;DHT22;27984;51.476;5.702;2022-11-20T04:40:39;-0.90;99.90
42333;DHT22;27984;51.476;5.702;2022-11-20T04:43:04;-0.80;99.90
42333;DHT22;27984;51.476;5.702;2022-11-20T04:45:30;-0.80;99.90
42333;DHT22;27984;51.476;5.702;2022-11-20T04:47:56;-0.80;99.90
42333;DHT22;27984;51.476;5.702;2022-11-20T04:50:21;-0.80;99.90
42333;DHT22;27984;51.476;5.702;2022-11-20T04:52:47;-0.80;99.90
42333;DHT22;27984;51.476;5.702;2022-11-20T04:55:12;-0.90;99.90
42333;DHT22;27984;51.476;5.702;2022-11-20T04:57:38;-0.90;99.90
42333;DHT22;27984;51.476;5.702;2022-11-20T05:00:04;-0.90;99.90
42333;DHT22;27984;51.476;5.702;2022-11-20T05:02:31;-0.90;99.90
42333;DHT22;27984;51.476;5.702;2022-11-20T05:04:57;-0.90;99.90
42333;DHT22;27984;51.476;5.702;2022-11-20T05:07:22;-0.90;99.90
42333;DHT22;27984;51.476;5.702;2022-11-20T05:09:48;-0.80;99.90
42333;DHT22;27984;51.476;5.702;2022-11-20T05:12:16;-0.80;99.90
42333;DHT22;27984;51.476;5.702;2022-11-20T05:14:42;-0.70;99.90
42333;DHT22;27984;51.476;5.702;2022-11-20T05:17:10;-0.70;99.90
42333;DHT22;27984;51.476;5.702;2022-11-20T05:19:41;-0.80;99.90
42333;DHT22;27984;51.476;5.702;2022-11-20T05:22:06;-0.90;99.90
42333;DHT22;27984;51.476;5.702;2022-11-20T05:24:32;-1.00;99.90
42333;DHT22;27984;51.476;5.702;2022-11-20T05:27:00;-1.00;99.90
42333;DHT22;27984;51.476;5.702;2022-11-20T05:29:25;-1.00;99.90
42333;DHT22;27984;51.476;5.702;2022-11-20T05:31:51;-1.00;99.90
42333;DHT22;27984;51.476;5.702;2022-11-20T05:34:16;-0.90;99.90
42333;DHT22;27984;51.476;5.702;2022-11-20T05:36:42;-0.80;99.90
42333;DHT22;27984;51.476;5.702;2022-11-20T05:39:07;-0.80;99.90
42333;DHT22;27984;51.476;5.702;2022-11-20T05:41:33;-0.80;99.90
42333;DHT22;27984;51.476;5.702;2022-11-20T05:43:59;-0.80;99.90
42333;DHT22;27984;51.476;5.702;2022-11-20T05:46:25;-0.80;99.90
42333;DHT22;27984;51.476;5.702;2022-11-20T05:48:50;-0.70;99.90
42333;DHT22;27984;51.476;5.702;2022-11-20T05:51:18;-0.70;99.90
42333;DHT22;27984;51.476;5.702;2022-11-20T05:53:44;-0.70;99.90
42333;DHT22;27984;51.476;5.702;2022-11-20T05:56:12;-0.60;99.90
42333;DHT22;27984;51.476;5.702;2022-11-20T05:58:38;-0.60;99.90
42333;DHT22;27984;51.476;5.702;2022-11-20T06:03:41;-0.50;99.90
42333;DHT22;27984;51.476;5.702;2022-11-20T06:06:17;-0.50;99.90
42333;DHT22;27984;51.476;5.702;2022-11-20T06:08:44;-0.40;99.90
42333;DHT22;27984;51.476;5.702;2022-11-20T06:11:11;-0.50;99.90
42333;DHT22;27984;51.476;5.702;2022-11-20T06:13:38;-0.40;99.90
42333;DHT22;27984;51.476;5.702;2022-11-20T06:16:04;-0.40;99.90
42333;DHT22;27984;51.476;5.702;2022-11-20T06:18:30;-0.30;99.90
42333;DHT22;27984;51.476;5.702;2022-11-20T06:21:04;-0.30;99.90
42333;DHT22;27984;51.476;5.702;2022-11-20T06:23:31;-0.20;99.90
42333;DHT22;27984;51.476;5.702;2022-11-20T06:26:01;-0.20;99.90
42333;DHT22;27984;51.476;5.702;2022-11-20T06:28:26;-0.10;99.90
42333;DHT22;27984;51.476;5.702;2022-11-20T06:30:52;-0.10;99.90
42333;DHT22;27984;51.476;5.702;2022-11-20T06:33:18;0.00;99.90
42333;DHT22;27984;51.476;5.702;2022-11-20T06:35:43;0.00;99.90
42333;DHT22;27984;51.476;5.702;2022-11-20T06:38:09;0.00;99.90
42333;DHT22;27984;51.476;5.702;2022-11-20T06:40:34;0.00;99.90
42333;DHT22;27984;51.476;5.702;2022-11-20T06:43:00;0.00;99.90
42333;DHT22;27984;51.476;5.702;2022-11-20T06:45:26;0.10;99.90
42333;DHT22;27984;51.476;5.702;2022-11-20T06:47:52;0.10;99.90
42333;DHT22;27984;51.476;5.702;2022-11-20T06:50:17;0.10;99.90
42333;DHT22;27984;51.476;5.702;2022-11-20T06:52:43;0.10;99.90
42333;DHT22;27984;51.476;5.702;2022-11-20T06:55:08;0.10;99.90
42333;DHT22;27984;51.476;5.702;2022-11-20T06:57:34;0.20;99.90
42333;DHT22;27984;51.476;5.702;2022-11-20T06:59:59;0.20;99.90
42333;DHT22;27984;51.476;5.702;2022-11-20T07:02:25;0.20;99.90
42333;DHT22;27984;51.476;5.702;2022-11-20T07:04:51;0.30;99.90
42333;DHT22;27984;51.476;5.702;2022-11-20T07:07:16;0.30;99.90
42333;DHT22;27984;51.476;5.702;2022-11-20T07:09:42;0.20;99.90
42333;DHT22;27984;51.476;5.702;2022-11-20T07:12:08;0.30;99.90
42333;DHT22;27984;51.476;5.702;2022-11-20T07:14:33;0.30;99.90
42333;DHT22;27984;51.476;5.702;2022-11-20T07:16:59;0.40;99.90
42333;DHT22;27984;51.476;5.702;2022-11-20T07:19:25;0.40;99.90
42333;DHT22;27984;51.476;5.702;2022-11-20T07:21:50;0.40;99.90
42333;DHT22;27984;51.476;5.702;2022-11-20T07:24:16;0.30;99.90
42333;DHT22;27984;51.476;5.702;2022-11-20T07:26:42;0.40;99.90
42333;DHT22;27984;51.476;5.702;2022-11-20T07:29:11;0.40;99.90
42333;DHT22;27984;51.476;5.702;2022-11-20T07:31:36;0.40;99.90
42333;DHT22;27984;51.476;5.702;2022-11-20T07:34:02;0.40;99.90
42333;DHT22;27984;51.476;5.702;2022-11-20T07:36:27;0.50;99.90
42333;DHT22;27984;51.476;5.702;2022-11-20T07:38:53;0.60;99.90
42333;DHT22;27984;51.476;5.702;2022-11-20T07:41:19;0.60;99.90
42333;DHT22;27984;51.476;5.702;2022-11-20T07:43:45;0.70;99.90
42333;DHT22;27984;51.476;5.702;2022-11-20T07:46:10;0.80;99.90
42333;DHT22;27984;51.476;5.702;2022-11-20T07:48:36;1.00;99.90
42333;DHT22;27984;51.476;5.702;2022-11-20T07:51:02;0.90;99.90
42333;DHT22;27984;51.476;5.702;2022-11-20T07:53:27;1.00;99.90
42333;DHT22;27984;51.476;5.702;2022-11-20T07:55:53;1.00;99.90
42333;DHT22;27984;51.476;5.702;2022-11-20T07:58:19;1.10;99.90
42333;DHT22;27984;51.476;5.702;2022-11-20T08:00:45;1.10;99.90
42333;DHT22;27984;51.476;5.702;2022-11-20T08:03:11;1.10;99.90
42333;DHT22;27984;51.476;5.702;2022-11-20T08:05:37;1.10;99.90
42333;DHT22;27984;51.476;5.702;2022-11-20T08:08:03;1.00;99.90
42333;DHT22;27984;51.476;5.702;2022-11-20T08:10:28;1.00;99.90
42333;DHT22;27984;51.476;5.702;2022-11-20T08:12:54;1.00;99.90
42333;DHT22;27984;51.476;5.702;2022-11-20T08:15:39;1.10;99.90
42333;DHT22;27984;51.476;5.702;2022-11-20T08:18:07;1.10;99.90
42333;DHT22;27984;51.476;5.702;2022-11-20T08:20:34;1.30;99.90
42333;DHT22;27984;51.476;5.702;2022-11-20T08:23:01;1.40;99.90
42333;DHT22;27984;51.476;5.702;2022-11-20T08:25:28;1.60;99.90
42333;DHT22;27984;51.476;5.702;2022-11-20T08:28:04;1.60;99.90
42333;DHT22;27984;51.476;5.702;2022-11-20T08:30:30;1.80;99.90
42333;DHT22;27984;51.476;5.702;2022-11-20T08:33:02;1.90;99.90
42333;DHT22;27984;51.476;5.702;2022-11-20T08:35:27;2.00;99.90
42333;DHT22;27984;51.476;5.702;2022-11-20T08:37:53;2.20;99.90
42333;DHT22;27984;51.476;5.702;2022-11-20T08:40:19;2.30;99.90
42333;DHT22;27984;51.476;5.702;2022-11-20T08:42:48;2.20;99.90
42333;DHT22;27984;51.476;5.702;2022-11-20T08:45:15;2.30;99.90
42333;DHT22;27984;51.476;5.702;2022-11-20T08:47:40;2.30;99.90
42333;DHT22;27984;51.476;5.702;2022-11-20T08:50:08;2.30;99.90
42333;DHT22;27984;51.476;5.702;2022-11-20T08:52:34;2.40;99.90
42333;DHT22;27984;51.476;5.702;2022-11-20T08:54:59;2.40;99.90
42333;DHT22;27984;51.476;5.702;2022-11-20T08:57:25;2.40;99.90
42333;DHT22;27984;51.476;5.702;2022-11-20T08:59:51;2.40;99.90
42333;DHT22;27984;51.476;5.702;2022-11-20T09:02:17;2.40;99.90
42333;DHT22;27984;51.476;5.702;2022-11-20T09:04:42;2.40;99.90
42333;DHT22;27984;51.476;5.702;2022-11-20T09:07:08;2.50;99.90
42333;DHT22;27984;51.476;5.702;2022-11-20T09:09:34;2.60;99.90
42333;DHT22;27984;51.476;5.702;2022-11-20T09:11:59;2.60;99.90
42333;DHT22;27984;51.476;5.702;2022-11-20T09:14:27;2.80;99.90
42333;DHT22;27984;51.476;5.702;2022-11-20T09:16:55;2.90;99.90
42333;DHT22;27984;51.476;5.702;2022-11-20T09:19:21;3.00;99.90
42333;DHT22;27984;51.476;5.702;2022-11-20T09:21:47;3.00;99.90
42333;DHT22;27984;51.476;5.702;2022-11-20T09:24:12;3.10;99.90
42333;DHT22;27984;51.476;5.702;2022-11-20T09:26:38;3.20;99.90
42333;DHT22;27984;51.476;5.702;2022-11-20T09:29:03;3.30;99.90
42333;DHT22;27984;51.476;5.702;2022-11-20T09:31:29;3.40;99.90
42333;DHT22;27984;51.476;5.702;2022-11-20T09:33:55;3.40;99.90
42333;DHT22;27984;51.476;5.702;2022-11-20T09:36:20;3.40;99.90
42333;DHT22;27984;51.476;5.702;2022-11-20T09:38:46;3.60;99.90
42333;DHT22;27984;51.476;5.702;2022-11-20T09:46:57;3.50;99.90
42333;DHT22;27984;51.476;5.702;2022-11-20T09:49:32;3.40;99.90
42333;DHT22;27984;51.476;5.702;2022-11-20T09:54:44;3.40;99.90
42333;DHT22;27984;51.476;5.702;2022-11-20T09:57:12;3.40;99.90
42333;DHT22;27984;51.476;5.702;2022-11-20T09:59:44;3.50;99.90
42333;DHT22;27984;51.476;5.702;2022-11-20T10:05:04;3.60;99.90
42333;DHT22;27984;51.476;5.702;2022-11-20T10:07:39;3.70;99.90
42333;DHT22;27984;51.476;5.702;2022-11-20T10:10:58;3.70;99.90
42333;DHT22;27984;51.476;5.702;2022-11-20T10:21:56;3.90;99.90
42333;DHT22;27984;51.476;5.702;2022-11-20T10:27:21;4.00;99.90
42333;DHT22;27984;51.476;5.702;2022-11-20T10:30:13;4.00;99.90
42333;DHT22;27984;51.476;5.702;2022-11-20T10:32:46;4.00;99.90
42333;DHT22;27984;51.476;5.702;2022-11-20T10:35:26;4.10;99.90
42333;DHT22;27984;51.476;5.702;2022-11-20T10:37:59;4.10;99.90
42333;DHT22;27984;51.476;5.702;2022-11-20T10:40:32;4.20;99.90
42333;DHT22;27984;51.476;5.702;2022-11-20T10:43:04;4.30;99.90
42333;DHT22;27984;51.476;5.702;2022-11-20T10:50:44;4.40;99.90
42333;DHT22;27984;51.476;5.702;2022-11-20T10:56:03;4.40;99.90
42333;DHT22;27984;51.476;5.702;2022-11-20T10:59:02;4.50;99.90
42333;DHT22;27984;51.476;5.702;2022-11-20T11:01:24;4.40;99.90
42333;DHT22;27984;51.476;5.702;2022-11-20T11:03:52;4.50;99.90
42333;DHT22;27984;51.476;5.702;2022-11-20T11:06:40;4.50;99.90
42333;DHT22;27984;51.476;5.702;2022-11-20T11:09:18;4.50;99.90
42333;DHT22;27984;51.476;5.702;2022-11-20T11:11:45;4.60;99.90
42333;DHT22;27984;51.476;5.702;2022-11-20T11:14:13;4.60;99.90
42333;DHT22;27984;51.476;5.702;2022-11-20T11:16:53;4.70;99.90
42333;DHT22;27984;51.476;5.702;2022-11-20T11:19:19;4.70;99.90
42333;DHT22;27984;51.476;5.702;2022-11-20T11:21:56;4.50;99.90
42333;DHT22;27984;51.476;5.702;2022-11-20T11:24:29;4.50;99.90
42333;DHT22;27984;51.476;5.702;2022-11-20T11:27:03;4.60;99.90
42333;DHT22;27984;51.476;5.702;2022-11-20T11:29:32;4.60;99.90
42333;DHT22;27984;51.476;5.702;2022-11-20T11:32:11;4.70;99.90
42333;DHT22;27984;51.476;5.702;2022-11-20T11:34:37;4.70;99.90
42333;DHT22;27984;51.476;5.702;2022-11-20T11:37:03;4.60;99.90
42333;DHT22;27984;51.476;5.702;2022-11-20T11:39:31;4.60;99.90
42333;DHT22;27984;51.476;5.702;2022-11-20T11:41:58;4.50;99.90
42333;DHT22;27984;51.476;5.702;2022-11-20T11:44:31;4.50;99.90
42333;DHT22;27984;51.476;5.702;2022-11-20T11:49:48;4.50;99.90
42333;DHT22;27984;51.476;5.702;2022-11-20T11:52:20;4.40;99.90
42333;DHT22;27984;51.476;5.702;2022-11-20T11:54:57;4.30;99.90
42333;DHT22;27984;51.476;5.702;2022-11-20T12:00:12;4.40;99.90
42333;DHT22;27984;51.476;5.702;2022-11-20T12:10:59;4.40;99.90
42333;DHT22;27984;51.476;5.702;2022-11-20T12:16:00;4.50;99.90
42333;DHT22;27984;51.476;5.702;2022-11-20T12:18:27;4.60;99.90
42333;DHT22;27984;51.476;5.702;2022-11-20T12:32:17;4.80;99.90
42333;DHT22;27984;51.476;5.702;2022-11-20T12:34:53;4.70;99.90
42333;DHT22;27984;51.476;5.702;2022-11-20T12:37:36;4.90;99.90
42333;DHT22;27984;51.476;5.702;2022-11-20T12:43:24;5.00;99.90
42333;DHT22;27984;51.476;5.702;2022-11-20T12:55:00;5.00;99.90
42333;DHT22;27984;51.476;5.702;2022-11-20T13:07:58;5.20;99.90
42333;DHT22;27984;51.476;5.702;2022-11-20T13:10:49;5.30;99.90
42333;DHT22;27984;51.476;5.702;2022-11-20T13:16:05;5.30;99.90
42333;DHT22;27984;51.476;5.702;2022-11-20T13:18:39;5.30;99.90
42333;DHT22;27984;51.476;5.702;2022-11-20T13:21:22;5.50;99.90
42333;DHT22;27984;51.476;5.702;2022-11-20T13:23:48;5.50;99.90
42333;DHT22;27984;51.476;5.702;2022-11-20T13:26:19;5.50;99.90
42333;DHT22;27984;51.476;5.702;2022-11-20T13:28:47;5.40;99.90
42333;DHT22;27984;51.476;5.702;2022-11-20T13:31:31;5.30;99.90
42333;DHT22;27984;51.476;5.702;2022-11-20T13:33:59;5.30;99.90
42333;DHT22;27984;51.476;5.702;2022-11-20T13:36:28;5.30;99.90
42333;DHT22;27984;51.476;5.702;2022-11-20T13:38:55;5.30;99.90
42333;DHT22;27984;51.476;5.702;2022-11-20T13:44:37;5.40;99.90
42333;DHT22;27984;51.476;5.702;2022-11-20T13:47:04;5.30;99.90
42333;DHT22;27984;51.476;5.702;2022-11-20T13:49:38;5.40;99.90
42333;DHT22;27984;51.476;5.702;2022-11-20T13:54:55;5.50;99.90
42333;DHT22;27984;51.476;5.702;2022-11-20T14:00:14;5.40;99.90
42333;DHT22;27984;51.476;5.702;2022-11-20T14:02:40;5.50;99.90
42333;DHT22;27984;51.476;5.702;2022-11-20T14:05:24;5.50;99.90
42333;DHT22;27984;51.476;5.702;2022-11-20T14:07:51;5.40;99.90
42333;DHT22;27984;51.476;5.702;2022-11-20T14:12:45;5.40;99.90
42333;DHT22;27984;51.476;5.702;2022-11-20T14:15:30;5.40;99.90
42333;DHT22;27984;51.476;5.702;2022-11-20T14:17:56;5.60;99.90
42333;DHT22;27984;51.476;5.702;2022-11-20T14:20:26;5.50;99.90
42333;DHT22;27984;51.476;5.702;2022-11-20T14:22:53;5.50;99.90
42333;DHT22;27984;51.476;5.702;2022-11-20T14:25:23;5.50;99.90
42333;DHT22;27984;51.476;5.702;2022-11-20T14:27:56;5.50;99.90
42333;DHT22;27984;51.476;5.702;2022-11-20T14:30:28;5.50;99.90
42333;DHT22;27984;51.476;5.702;2022-11-20T14:32:57;5.50;99.90
42333;DHT22;27984;51.476;5.702;2022-11-20T14:35:31;5.40;99.90
42333;DHT22;27984;51.476;5.702;2022-11-20T14:38:00;5.40;99.90
42333;DHT22;27984;51.476;5.702;2022-11-20T14:40:35;5.40;99.90
42333;DHT22;27984;51.476;5.702;2022-11-20T14:43:02;5.40;99.90
42333;DHT22;27984;51.476;5.702;2022-11-20T14:45:30;5.30;99.90
42333;DHT22;27984;51.476;5.702;2022-11-20T14:47:57;5.30;99.90
42333;DHT22;27984;51.476;5.702;2022-11-20T14:50:28;5.30;99.90
42333;DHT22;27984;51.476;5.702;2022-11-20T14:52:59;5.20;99.90
42333;DHT22;27984;51.476;5.702;2022-11-20T14:57:57;5.10;99.90
42333;DHT22;27984;51.476;5.702;2022-11-20T15:00:26;5.10;99.90
42333;DHT22;27984;51.476;5.702;2022-11-20T15:02:52;5.10;99.90
42333;DHT22;27984;51.476;5.702;2022-11-20T15:05:20;5.10;99.90
42333;DHT22;27984;51.476;5.702;2022-11-20T15:08:13;5.10;99.90
42333;DHT22;27984;51.476;5.702;2022-11-20T15:10:45;5.10;99.90
42333;DHT22;27984;51.476;5.702;2022-11-20T15:13:17;5.10;99.90
42333;DHT22;27984;51.476;5.702;2022-11-20T15:15:50;5.20;99.90
42333;DHT22;27984;51.476;5.702;2022-11-20T15:18:21;5.20;99.90
42333;DHT22;27984;51.476;5.702;2022-11-20T15:20:48;5.20;99.90
42333;DHT22;27984;51.476;5.702;2022-11-20T15:23:16;5.20;99.90
42333;DHT22;27984;51.476;5.702;2022-11-20T15:25:44;5.20;99.90
42333;DHT22;27984;51.476;5.702;2022-11-20T15:28:21;5.20;99.90
42333;DHT22;27984;51.476;5.702;2022-11-20T15:30:49;5.20;99.90
42333;DHT22;27984;51.476;5.702;2022-11-20T15:33:17;5.30;99.90
42333;DHT22;27984;51.476;5.702;2022-11-20T15:35:46;5.20;99.90
42333;DHT22;27984;51.476;5.702;2022-11-20T15:38:14;5.20;99.90
42333;DHT22;27984;51.476;5.702;2022-11-20T15:40:40;5.30;99.90
42333;DHT22;27984;51.476;5.702;2022-11-20T15:43:10;5.30;99.90
42333;DHT22;27984;51.476;5.702;2022-11-20T15:45:39;5.30;99.90
42333;DHT22;27984;51.476;5.702;2022-11-20T15:48:10;5.30;99.90
42333;DHT22;27984;51.476;5.702;2022-11-20T15:50:59;5.30;99.90
42333;DHT22;27984;51.476;5.702;2022-11-20T15:53:29;5.40;99.90
42333;DHT22;27984;51.476;5.702;2022-11-20T15:55:57;5.40;99.90
42333;DHT22;27984;51.476;5.702;2022-11-20T15:58:23;5.40;99.90
42333;DHT22;27984;51.476;5.702;2022-11-20T16:00:52;5.40;99.90
42333;DHT22;27984;51.476;5.702;2022-11-20T16:03:18;5.40;99.90
42333;DHT22;27984;51.476;5.702;2022-11-20T16:05:45;5.50;99.90
42333;DHT22;27984;51.476;5.702;2022-11-20T16:08:11;5.40;99.90
42333;DHT22;27984;51.476;5.702;2022-11-20T16:10:36;5.50;99.90
42333;DHT22;27984;51.476;5.702;2022-11-20T16:13:14;5.50;99.90
42333;DHT22;27984;51.476;5.702;2022-11-20T16:16:02;5.50;99.90
42333;DHT22;27984;51.476;5.702;2022-11-20T16:18:33;5.50;99.90
42333;DHT22;27984;51.476;5.702;2022-11-20T16:21:01;5.60;99.90
42333;DHT22;27984;51.476;5.702;2022-11-20T16:23:29;5.60;99.90
42333;DHT22;27984;51.476;5.702;2022-11-20T16:25:57;5.60;99.90
42333;DHT22;27984;51.476;5.702;2022-11-20T16:28:23;5.70;99.90
42333;DHT22;27984;51.476;5.702;2022-11-20T16:30:51;5.70;99.90
42333;DHT22;27984;51.476;5.702;2022-11-20T16:33:19;5.70;99.90
42333;DHT22;27984;51.476;5.702;2022-11-20T16:35:45;5.70;99.90
42333;DHT22;27984;51.476;5.702;2022-11-20T16:38:10;5.70;99.90
42333;DHT22;27984;51.476;5.702;2022-11-20T16:40:39;5.70;99.90
42333;DHT22;27984;51.476;5.702;2022-11-20T16:43:10;5.70;99.90
42333;DHT22;27984;51.476;5.702;2022-11-20T16:45:43;5.70;99.90
42333;DHT22;27984;51.476;5.702;2022-11-20T16:48:13;5.70;99.90
42333;DHT22;27984;51.476;5.702;2022-11-20T16:50:51;5.80;99.90
42333;DHT22;27984;51.476;5.702;2022-11-20T16:53:18;5.80;99.90
42333;DHT22;27984;51.476;5.702;2022-11-20T16:55:44;5.80;99.90
42333;DHT22;27984;51.476;5.702;2022-11-20T16:58:10;5.90;99.90
42333;DHT22;27984;51.476;5.702;2022-11-20T17:00:38;5.90;99.90
42333;DHT22;27984;51.476;5.702;2022-11-20T17:03:04;5.90;99.90
42333;DHT22;27984;51.476;5.702;2022-11-20T17:05:31;5.90;99.90
42333;DHT22;27984;51.476;5.702;2022-11-20T17:07:56;6.00;99.90
42333;DHT22;27984;51.476;5.702;2022-11-20T17:10:22;6.00;99.90
42333;DHT22;27984;51.476;5.702;2022-11-20T17:12:48;6.00;99.90
42333;DHT22;27984;51.476;5.702;2022-11-20T17:15:13;6.00;99.90
42333;DHT22;27984;51.476;5.702;2022-11-20T17:17:39;6.00;99.90
42333;DHT22;27984;51.476;5.702;2022-11-20T17:20:05;6.10;99.90
42333;DHT22;27984;51.476;5.702;2022-11-20T17:22:31;6.10;99.90
42333;DHT22;27984;51.476;5.702;2022-11-20T17:24:56;6.10;99.90
42333;DHT22;27984;51.476;5.702;2022-11-20T17:27:22;6.10;99.90
42333;DHT22;27984;51.476;5.702;2022-11-20T17:29:50;6.20;99.90
42333;DHT22;27984;51.476;5.702;2022-11-20T17:32:19;6.20;99.90